WXM80 ListenWXM80 Stop

You find our weather info also at:

UK Metoffice

WeatherCloud

Weather Underground

Northeastern Weather Network

AWEKAS

Citizen Weather Observer Program (CWOP)

HAMweather, WeatherForYou, PWS Weather


Weather Underground History page Text

Daily Summary for June 9, 2017 Units:  English    Metric   Both
« Previous Day
Next Day »
Daily Weekly Monthly Yearly Custom
  High: Low: Average:
Temperature: 84.0 °F 53.2 °F 71.1 °F
Dew Point: 60.6 °F 49.4 °F 55.5 °F
Humidity: 89 % 39 % 60 %
Wind Speed: 8.3 mph 0.0 mph 1.8 mph
Wind Gust: 13.8 mph - -
Wind:- - SSW
Pressure: 29.83 in 29.68 in -
Precipitation: 0.00 in    
Historical Graphs
 
 
Tabular Data for June 9, 2017
Time Temperature Dew Point Pressure Wind Wind Speed Wind Gust Humidity Rainfall Rate (Hourly)
00:03 57.0 °F 53.5 °F 29.77 in NE 0.1 mph 1.2 mph 88 % 0.00 in
00:08 57.0 °F 53.5 °F 29.77 in NE 0.2 mph 3.5 mph 88 % 0.00 in
00:13 57.0 °F 53.5 °F 29.77 in NNE 3.6 mph 4.6 mph 88 % 0.00 in
00:19 57.0 °F 53.5 °F 29.77 in NNE 2.4 mph 4.6 mph 88 % 0.00 in
00:24 57.0 °F 53.5 °F 29.76 in NNE 2.3 mph 4.0 mph 88 % 0.00 in
00:29 57.0 °F 53.8 °F 29.76 in NNE 2.8 mph 4.6 mph 89 % 0.00 in
00:34 57.0 °F 53.8 °F 29.76 in NNE 1.1 mph 3.5 mph 89 % 0.00 in
00:39 57.0 °F 53.8 °F 29.76 in NNE 1.1 mph 3.5 mph 89 % 0.00 in
00:44 57.1 °F 53.9 °F 29.76 in NNE 2.8 mph 5.8 mph 89 % 0.00 in
00:49 57.1 °F 53.9 °F 29.76 in North 3.2 mph 6.9 mph 89 % 0.00 in
00:54 57.0 °F 53.5 °F 29.76 in NNE 1.5 mph 5.0 mph 88 % 0.00 in
00:59 57.0 °F 53.2 °F 29.76 in North 2.2 mph 4.6 mph 87 % 0.00 in
01:04 56.9 °F 52.8 °F 29.75 in NNE 3.6 mph 4.6 mph 86 % 0.00 in
01:09 56.8 °F 52.7 °F 29.75 in NNE 4.4 mph 5.8 mph 86 % 0.00 in
01:14 56.8 °F 52.7 °F 29.75 in NNE 1.8 mph 4.6 mph 86 % 0.00 in
01:19 56.8 °F 52.7 °F 29.75 in North 1.4 mph 3.5 mph 86 % 0.00 in
01:24 56.8 °F 52.3 °F 29.75 in NNE 3.4 mph 4.6 mph 85 % 0.00 in
01:29 56.8 °F 52.3 °F 29.75 in NNE 1.4 mph 3.5 mph 85 % 0.00 in
01:34 56.6 °F 51.8 °F 29.75 in NNE 0.9 mph 3.5 mph 84 % 0.00 in
01:35 56.7 °F 51.9 °F 29.75 in NNE 2.0 mph 3.5 mph 84 % 0.00 in
01:40 56.5 °F 51.4 °F 29.75 in North 0.5 mph 3.5 mph 83 % 0.00 in
01:45 56.5 °F 51.4 °F 29.75 in NNE 0.7 mph 3.5 mph 83 % 0.00 in
01:50 56.4 °F 51.3 °F 29.75 in NNE 1.9 mph 3.5 mph 83 % 0.00 in
01:55 56.4 °F 51.3 °F 29.75 in NNE 0.2 mph 1.2 mph 83 % 0.00 in
02:00 56.4 °F 51.0 °F 29.75 in North 0.2 mph 2.3 mph 82 % 0.00 in
02:05 56.3 °F 50.9 °F 29.75 in North 1.1 mph 2.3 mph 82 % 0.00 in
02:10 56.3 °F 50.9 °F 29.74 in NW 0.6 mph 4.0 mph 82 % 0.00 in
02:15 56.3 °F 50.9 °F 29.74 in NW 1.1 mph 3.5 mph 82 % 0.00 in
02:20 56.3 °F 50.5 °F 29.73 in NW 0.8 mph 2.3 mph 81 % 0.00 in
02:25 56.3 °F 50.9 °F 29.73 in North 0.5 mph 2.0 mph 82 % 0.00 in
02:30 56.3 °F 50.9 °F 29.73 in North 0.9 mph 3.5 mph 82 % 0.00 in
02:35 56.2 °F 51.1 °F 29.72 in North 1.0 mph 3.5 mph 83 % 0.00 in
02:40 56.2 °F 51.4 °F 29.72 in Calm     84 % 0.00 in
02:45 56.1 °F 51.3 °F 29.72 in Calm     84 % 0.00 in
02:50 56.0 °F 51.2 °F 29.72 in North 0.1 mph 1.2 mph 84 % 0.00 in
02:55 55.9 °F 51.1 °F 29.72 in North 0.6 mph 1.2 mph 84 % 0.00 in
03:00 55.8 °F 51.0 °F 29.72 in North 1.2 mph 3.5 mph 84 % 0.00 in
03:05 55.7 °F 51.3 °F 29.71 in Calm     85 % 0.00 in
03:10 55.6 °F 51.2 °F 29.71 in Calm     85 % 0.00 in
03:15 55.5 °F 51.1 °F 29.71 in Calm     85 % 0.00 in
03:20 55.3 °F 50.9 °F 29.71 in Calm   1.2 mph 85 % 0.00 in
03:21 55.3 °F 50.9 °F 29.70 in Calm     85 % 0.00 in
03:26 55.2 °F 50.8 °F 29.70 in Calm     85 % 0.00 in
03:31 55.1 °F 51.0 °F 29.70 in Calm     86 % 0.00 in
03:36 54.9 °F 50.8 °F 29.69 in Calm     86 % 0.00 in
03:41 54.8 °F 50.7 °F 29.70 in Calm     86 % 0.00 in
03:46 54.5 °F 50.4 °F 29.70 in Calm     86 % 0.00 in
03:51 54.3 °F 50.2 °F 29.69 in Calm     86 % 0.00 in
03:56 54.0 °F 50.2 °F 29.69 in North 0.1 mph   87 % 0.00 in
04:01 53.8 °F 50.0 °F 29.69 in Calm     87 % 0.00 in
04:06 53.5 °F 49.7 °F 29.69 in North 0.1 mph   87 % 0.00 in
04:11 53.2 °F 49.4 °F 29.69 in Calm     87 % 0.00 in
04:12 53.2 °F 49.4 °F 29.69 in Calm     87 % 0.00 in
09:33 63.8 °F 54.6 °F 29.71 in SW 1.3 mph 8.1 mph 72 % 0.00 in
09:35 63.9 °F 54.7 °F 29.71 in WSW 3.2 mph 5.0 mph 72 % 0.00 in
09:40 64.2 °F 55.7 °F 29.71 in West 2.8 mph 7.0 mph 74 % 0.00 in
09:45 64.7 °F 55.5 °F 29.71 in WSW 2.9 mph 4.6 mph 72 % 0.00 in
09:50 65.1 °F 55.8 °F 29.71 in West 0.1 mph 1.2 mph 72 % 0.00 in
09:55 65.6 °F 55.9 °F 29.71 in WSW 3.7 mph 6.9 mph 71 % 0.00 in
10:00 66.2 °F 55.7 °F 29.71 in West 0.6 mph 4.6 mph 69 % 0.00 in
10:05 66.7 °F 56.6 °F 29.71 in WSW 1.1 mph 3.5 mph 70 % 0.00 in
10:10 67.1 °F 56.6 °F 29.71 in SW 1.1 mph 5.0 mph 69 % 0.00 in
10:15 67.6 °F 56.7 °F 29.71 in WSW 4.8 mph 6.0 mph 68 % 0.00 in
10:20 68.0 °F 56.6 °F 29.71 in NW 3.3 mph 5.8 mph 67 % 0.00 in
10:25 68.4 °F 57.0 °F 29.71 in SW 4.0 mph 6.0 mph 67 % 0.00 in
10:30 69.1 °F 57.7 °F 29.72 in NW 2.8 mph 5.8 mph 67 % 0.00 in
10:35 69.8 °F 58.8 °F 29.71 in NNW 1.5 mph 3.5 mph 68 % 0.00 in
10:40 70.3 °F 58.0 °F 29.72 in NW 1.5 mph 3.5 mph 65 % 0.00 in
10:45 70.8 °F 57.1 °F 29.72 in WNW 3.0 mph 5.0 mph 62 % 0.00 in
10:50 71.4 °F 55.9 °F 29.72 in NNW 5.1 mph 8.0 mph 58 % 0.00 in
10:57 72.0 °F 57.4 °F 29.72 in WSW 4.4 mph 8.0 mph 60 % 0.00 in
11:02 72.4 °F 56.3 °F 29.72 in SW 5.2 mph 8.1 mph 57 % 0.00 in
11:07 72.9 °F 57.3 °F 29.72 in SW 2.4 mph 7.0 mph 58 % 0.00 in
11:12 73.5 °F 57.3 °F 29.71 in WSW 4.1 mph 6.9 mph 57 % 0.00 in
11:17 73.8 °F 58.6 °F 29.71 in WNW 1.5 mph 4.6 mph 59 % 0.00 in
11:22 74.1 °F 56.4 °F 29.71 in WSW 3.6 mph 5.8 mph 54 % 0.00 in
11:27 74.2 °F 58.5 °F 29.71 in West 3.7 mph 6.9 mph 58 % 0.00 in
11:32 74.3 °F 57.1 °F 29.71 in West 1.6 mph 3.5 mph 55 % 0.00 in
11:37 74.5 °F 57.3 °F 29.71 in SSW 3.5 mph 11.5 mph 55 % 0.00 in
11:42 74.8 °F 57.5 °F 29.71 in SSW 3.2 mph 6.9 mph 55 % 0.00 in
11:52 75.1 °F 58.3 °F 29.72 in WSW 2.4 mph 6.9 mph 56 % 0.00 in
11:57 75.4 °F 59.1 °F 29.71 in SW 3.7 mph 4.0 mph 57 % 0.00 in
12:02 75.8 °F 58.5 °F 29.71 in SW 5.4 mph 9.0 mph 55 % 0.00 in
12:07 76.1 °F 59.3 °F 29.71 in West 3.6 mph 4.6 mph 56 % 0.00 in
12:12 76.5 °F 59.1 °F 29.71 in WSW 2.7 mph 5.0 mph 55 % 0.00 in
12:17 76.9 °F 59.0 °F 29.71 in SW 2.7 mph 6.0 mph 54 % 0.00 in
12:23 77.5 °F 60.6 °F 29.71 in WSW 1.7 mph 3.5 mph 56 % 0.00 in
12:28 78.1 °F 59.6 °F 29.71 in WSW 3.1 mph 6.9 mph 53 % 0.00 in
12:33 78.5 °F 59.4 °F 29.70 in SW 3.8 mph 8.1 mph 52 % 0.00 in
12:38 78.7 °F 58.5 °F 29.71 in WSW 2.8 mph 4.6 mph 50 % 0.00 in
12:43 78.7 °F 59.0 °F 29.70 in SW 4.0 mph 6.9 mph 51 % 0.00 in
12:48 78.9 °F 58.1 °F 29.70 in SW 3.8 mph 4.6 mph 49 % 0.00 in
12:53 79.3 °F 59.0 °F 29.70 in WSW 3.6 mph 6.9 mph 50 % 0.00 in
12:58 79.6 °F 59.9 °F 29.69 in NW 4.1 mph 6.9 mph 51 % 0.00 in
13:03 79.7 °F 57.7 °F 29.69 in West 2.9 mph 9.2 mph 47 % 0.00 in
13:08 80.0 °F 59.1 °F 29.69 in SW 2.8 mph 4.0 mph 49 % 0.00 in
13:13 80.3 °F 59.4 °F 29.69 in WSW 4.4 mph 7.0 mph 49 % 0.00 in
13:18 80.6 °F 59.7 °F 29.69 in SSW 3.8 mph 9.2 mph 49 % 0.00 in
13:23 81.1 °F 60.1 °F 29.69 in WSW 7.2 mph 11.5 mph 49 % 0.00 in
13:28 81.3 °F 58.5 °F 29.69 in WSW 7.0 mph 9.2 mph 46 % 0.00 in
13:33 81.4 °F 59.8 °F 29.68 in SW 3.3 mph 6.9 mph 48 % 0.00 in
13:39 81.6 °F 58.8 °F 29.68 in WSW 3.1 mph 6.9 mph 46 % 0.00 in
13:44 81.8 °F 60.2 °F 29.68 in SW 4.6 mph 8.1 mph 48 % 0.00 in
13:49 82.0 °F 58.6 °F 29.68 in SW 6.4 mph 10.4 mph 45 % 0.00 in
13:54 82.1 °F 59.9 °F 29.68 in WSW 1.7 mph 9.2 mph 47 % 0.00 in
14:00 82.4 °F 60.1 °F 29.68 in WSW 3.4 mph 3.5 mph 47 % 0.00 in
14:05 82.8 °F 58.7 °F 29.68 in SW 5.8 mph 11.5 mph 44 % 0.00 in
14:10 83.0 °F 59.5 °F 29.68 in WSW 5.2 mph 6.0 mph 45 % 0.00 in
14:15 83.2 °F 59.6 °F 29.68 in WNW 2.0 mph 6.9 mph 45 % 0.00 in
14:20 83.5 °F 58.0 °F 29.68 in West 3.1 mph 11.5 mph 42 % 0.00 in
14:25 83.6 °F 56.7 °F 29.68 in NW 7.0 mph 11.5 mph 40 % 0.00 in
14:30 83.9 °F 57.0 °F 29.68 in WNW 8.3 mph 13.8 mph 40 % 0.00 in
14:35 83.9 °F 57.0 °F 29.68 in WSW 6.4 mph 11.5 mph 40 % 0.00 in
14:40 84.0 °F 57.1 °F 29.68 in WSW 7.2 mph 12.7 mph 40 % 0.00 in
14:50 84.0 °F 56.4 °F 29.69 in North 7.1 mph 11.5 mph 39 % 0.00 in
14:55 83.6 °F 56.7 °F 29.69 in NW 3.5 mph 10.4 mph 40 % 0.00 in
15:00 83.4 °F 57.2 °F 29.69 in SW 2.6 mph 5.8 mph 41 % 0.00 in
15:05 83.1 °F 56.3 °F 29.70 in West 5.6 mph 11.0 mph 40 % 0.00 in
15:10 82.7 °F 58.6 °F 29.70 in WSW 2.7 mph 9.2 mph 44 % 0.00 in
15:15 82.4 °F 59.5 °F 29.70 in NW 3.8 mph 8.0 mph 46 % 0.00 in
15:20 82.2 °F 58.7 °F 29.70 in WNW 4.4 mph 9.2 mph 45 % 0.00 in
15:25 81.9 °F 57.8 °F 29.70 in NW 5.8 mph 9.2 mph 44 % 0.00 in
15:30 82.0 °F 59.8 °F 29.70 in NW 1.1 mph 4.6 mph 47 % 0.00 in
15:31 82.0 °F 59.8 °F 29.70 in WNW 1.0 mph 4.6 mph 47 % 0.00 in
15:36 81.9 °F 58.5 °F 29.70 in NNE 3.4 mph 6.9 mph 45 % 0.00 in
15:41 81.6 °F 57.6 °F 29.70 in West 5.4 mph 9.2 mph 44 % 0.00 in
15:46 81.4 °F 58.6 °F 29.70 in West 4.3 mph 11.5 mph 46 % 0.00 in
15:51 81.1 °F 57.7 °F 29.70 in WNW 3.4 mph 7.0 mph 45 % 0.00 in
15:56 80.9 °F 55.0 °F 29.70 in ENE 6.7 mph 11.5 mph 41 % 0.00 in
16:01 80.8 °F 58.1 °F 29.70 in NW 4.8 mph 8.0 mph 46 % 0.00 in
16:06 80.7 °F 56.8 °F 29.70 in WNW 1.7 mph 3.5 mph 44 % 0.00 in
16:11 80.7 °F 56.8 °F 29.70 in NNE 1.4 mph 5.8 mph 44 % 0.00 in
16:16 80.8 °F 58.1 °F 29.70 in WNW 2.6 mph 4.6 mph 46 % 0.00 in
16:21 80.9 °F 56.3 °F 29.70 in NW 2.3 mph 3.5 mph 43 % 0.00 in
16:26 80.9 °F 56.9 °F 29.70 in WNW 1.8 mph 4.6 mph 44 % 0.00 in
16:31 81.2 °F 57.2 °F 29.70 in NNE 1.5 mph 4.6 mph 44 % 0.00 in
16:36 81.2 °F 57.8 °F 29.70 in NNW 1.3 mph 3.5 mph 45 % 0.00 in
16:41 81.3 °F 57.3 °F 29.70 in North 1.8 mph 6.9 mph 44 % 0.00 in
16:46 81.3 °F 57.3 °F 29.70 in NW 1.7 mph 3.5 mph 44 % 0.00 in
16:51 81.2 °F 56.6 °F 29.70 in NNE 0.7 mph 2.3 mph 43 % 0.00 in
16:56 81.2 °F 55.3 °F 29.70 in WNW 0.9 mph 4.0 mph 41 % 0.00 in
17:01 81.2 °F 55.3 °F 29.70 in WNW 1.0 mph 3.5 mph 41 % 0.00 in
17:06 81.2 °F 57.2 °F 29.70 in NNW 0.3 mph 2.3 mph 44 % 0.00 in
17:11 81.1 °F 56.5 °F 29.70 in NW 1.1 mph 3.5 mph 43 % 0.00 in
17:16 81.0 °F 55.7 °F 29.69 in NW 1.4 mph 3.5 mph 42 % 0.00 in
17:21 80.9 °F 55.0 °F 29.69 in NW 0.9 mph 2.3 mph 41 % 0.00 in
17:26 81.0 °F 55.1 °F 29.69 in Calm   2.3 mph 41 % 0.00 in
17:31 81.1 °F 55.8 °F 29.70 in WSW 1.7 mph 5.8 mph 42 % 0.00 in
17:36 81.1 °F 56.5 °F 29.70 in Calm   1.2 mph 43 % 0.00 in
17:41 81.0 °F 55.7 °F 29.69 in SW 3.1 mph 4.0 mph 42 % 0.00 in
17:46 80.9 °F 55.0 °F 29.70 in SW 1.3 mph 4.0 mph 41 % 0.00 in
17:51 80.9 °F 55.7 °F 29.70 in SW 0.8 mph 3.5 mph 42 % 0.00 in
17:56 80.9 °F 55.7 °F 29.70 in SW 2.0 mph 5.0 mph 42 % 0.00 in
18:01 80.7 °F 54.8 °F 29.70 in SW 2.0 mph 3.5 mph 41 % 0.00 in
18:06 80.5 °F 55.9 °F 29.70 in WSW 1.4 mph 6.9 mph 43 % 0.00 in
18:11 80.4 °F 55.9 °F 29.70 in Calm   1.2 mph 43 % 0.00 in
18:16 80.2 °F 55.7 °F 29.70 in West 0.4 mph 3.5 mph 43 % 0.00 in
18:21 80.1 °F 56.2 °F 29.70 in West 0.8 mph 3.5 mph 44 % 0.00 in
18:26 80.0 °F 56.1 °F 29.70 in Calm   1.0 mph 44 % 0.00 in
18:31 79.9 °F 55.4 °F 29.70 in WSW 1.6 mph 3.5 mph 43 % 0.00 in
18:36 79.8 °F 55.9 °F 29.71 in Calm   1.2 mph 44 % 0.00 in
18:41 79.7 °F 56.5 °F 29.71 in WSW 0.8 mph 2.0 mph 45 % 0.00 in
18:46 79.5 °F 55.7 °F 29.71 in WSW 0.8 mph 2.3 mph 44 % 0.00 in
18:51 79.4 °F 56.2 °F 29.72 in WSW 0.7 mph 3.5 mph 45 % 0.00 in
18:57 79.2 °F 56.0 °F 29.72 in SW 1.1 mph 3.5 mph 45 % 0.00 in
19:02 79.1 °F 55.9 °F 29.72 in SW 0.9 mph 2.3 mph 45 % 0.00 in
19:07 78.9 °F 55.1 °F 29.72 in WSW 1.1 mph 2.3 mph 44 % 0.00 in
19:12 78.8 °F 55.0 °F 29.72 in WSW 2.4 mph 3.5 mph 44 % 0.00 in
19:17 78.6 °F 55.5 °F 29.72 in Calm   1.2 mph 45 % 0.00 in
19:22 78.5 °F 55.4 °F 29.72 in Calm   2.3 mph 45 % 0.00 in
19:27 78.3 °F 55.8 °F 29.73 in SW 0.6 mph 3.5 mph 46 % 0.00 in
19:32 78.2 °F 55.7 °F 29.73 in SW 1.7 mph 3.5 mph 46 % 0.00 in
19:37 78.0 °F 55.5 °F 29.74 in SW 1.5 mph 3.5 mph 46 % 0.00 in
19:42 77.8 °F 55.4 °F 29.74 in SW 1.4 mph 3.5 mph 46 % 0.00 in
19:47 77.5 °F 55.1 °F 29.74 in SW 0.5 mph 2.3 mph 46 % 0.00 in
19:52 77.3 °F 54.9 °F 29.74 in SW 0.3 mph 2.3 mph 46 % 0.00 in
19:57 76.9 °F 55.1 °F 29.74 in SW 0.3 mph 1.2 mph 47 % 0.00 in
20:02 76.6 °F 55.4 °F 29.74 in SW 0.4 mph 2.3 mph 48 % 0.00 in
20:07 76.3 °F 55.2 °F 29.74 in SW 1.2 mph 3.5 mph 48 % 0.00 in
20:12 76.0 °F 55.5 °F 29.74 in Calm     49 % 0.00 in
20:17 75.5 °F 55.6 °F 29.75 in Calm     50 % 0.00 in
20:22 75.1 °F 55.7 °F 29.75 in Calm   1.2 mph 51 % 0.00 in
20:27 74.7 °F 56.4 °F 29.75 in Calm     53 % 0.00 in
20:32 74.2 °F 56.5 °F 29.75 in Calm     54 % 0.00 in
20:37 73.8 °F 56.6 °F 29.75 in Calm     55 % 0.00 in
20:42 73.3 °F 56.7 °F 29.75 in Calm     56 % 0.00 in
20:47 72.9 °F 56.3 °F 29.75 in Calm     56 % 0.00 in
20:57 71.9 °F 55.8 °F 29.76 in Calm   1.2 mph 57 % 0.00 in
21:02 71.4 °F 55.4 °F 29.76 in Calm     57 % 0.00 in
21:05 71.2 °F 55.2 °F 29.76 in SW 0.2 mph 1.2 mph 57 % 0.00 in
21:10 70.9 °F 55.4 °F 29.77 in Calm     58 % 0.00 in
21:15 70.6 °F 55.6 °F 29.77 in Calm   1.2 mph 59 % 0.00 in
21:20 70.4 °F 55.8 °F 29.77 in Calm   1.2 mph 60 % 0.00 in
21:25 70.2 °F 55.7 °F 29.78 in SW 0.1 mph 1.2 mph 60 % 0.00 in
21:31 69.9 °F 54.9 °F 29.78 in Calm     59 % 0.00 in
21:36 69.8 °F 54.8 °F 29.78 in Calm   1.0 mph 59 % 0.00 in
21:41 69.6 °F 55.6 °F 29.78 in Calm   1.0 mph 61 % 0.00 in
21:46 69.4 °F 55.8 °F 29.79 in Calm     62 % 0.00 in
21:51 69.3 °F 55.7 °F 29.79 in Calm   1.0 mph 62 % 0.00 in
21:56 69.1 °F 55.5 °F 29.79 in Calm   1.0 mph 62 % 0.00 in
22:01 68.9 °F 55.3 °F 29.80 in Calm     62 % 0.00 in
22:06 68.8 °F 55.2 °F 29.80 in Calm     62 % 0.00 in
22:11 68.6 °F 55.5 °F 29.80 in Calm     63 % 0.00 in
22:16 68.5 °F 55.8 °F 29.80 in Calm     64 % 0.00 in
22:21 68.3 °F 56.1 °F 29.81 in Calm     65 % 0.00 in
22:26 68.1 °F 55.9 °F 29.81 in Calm     65 % 0.00 in
22:31 67.9 °F 55.7 °F 29.81 in Calm     65 % 0.00 in
22:36 67.7 °F 55.5 °F 29.81 in Calm     65 % 0.00 in
22:41 67.5 °F 55.3 °F 29.81 in Calm     65 % 0.00 in
22:46 67.3 °F 55.5 °F 29.82 in Calm     66 % 0.00 in
22:51 67.2 °F 55.5 °F 29.82 in Calm     66 % 0.00 in
22:56 67.0 °F 55.3 °F 29.82 in Calm     66 % 0.00 in
23:06 66.7 °F 55.4 °F 29.82 in Calm     67 % 0.00 in
23:11 66.6 °F 55.3 °F 29.83 in Calm     67 % 0.00 in
23:16 66.4 °F 55.1 °F 29.83 in Calm     67 % 0.00 in
23:21 66.3 °F 55.0 °F 29.83 in Calm     67 % 0.00 in
23:27 66.1 °F 54.8 °F 29.83 in SW 0.6 mph 2.0 mph 67 % 0.00 in
23:32 66.0 °F 54.7 °F 29.82 in SW 0.2 mph 1.2 mph 67 % 0.00 in
23:36 66.0 °F 54.7 °F 29.83 in Calm     67 % 0.00 in
23:41 66.0 °F 55.1 °F 29.83 in Calm     68 % 0.00 in
23:46 65.9 °F 55.0 °F 29.83 in Calm     68 % 0.00 in
23:51 65.9 °F 55.0 °F 29.83 in Calm   1.2 mph 68 % 0.00 in
23:56 65.8 °F 54.9 °F 29.83 in Calm   1.2 mph 68 % 0.00 in
Crab Meadow Weather
Compliments of Weather Underground - 2.75 mb

Script developed by  Jim McMurry - jmcmurry@mwt.net Adapted for the template by  Wim van der Kuil - Leuven-Template.eu

Astronomy: One day on Jupiter is only 9 hours and 55 minutes.